createdAt,value
2018-09-05T00:02:14.425Z,19.57
2018-09-05T00:07:18.764Z,18.50
2018-09-05T00:12:22.787Z,20.07
2018-09-05T00:17:26.704Z,19.23
2018-09-05T00:22:30.571Z,19.03
2018-09-05T00:27:34.358Z,17.80
2018-09-05T00:32:38.259Z,18.27
2018-09-05T00:37:42.712Z,17.93
2018-09-05T00:42:46.831Z,15.77
2018-09-05T00:47:50.997Z,16.43
2018-09-05T00:52:54.814Z,17.27
2018-09-05T01:03:37.536Z,17.33
2018-09-05T01:08:44.924Z,20.33
2018-09-05T01:13:48.792Z,16.83
2018-09-05T01:19:14.916Z,15.40
2018-09-05T01:24:18.775Z,17.23
2018-09-05T01:29:27.108Z,16.80
2018-09-05T01:34:31.560Z,15.47
2018-09-05T01:39:38.549Z,15.23
2018-09-05T01:44:42.275Z,17.33
2018-09-05T01:49:46.475Z,16.40
2018-09-05T01:54:50.377Z,18.70
2018-09-05T01:59:54.394Z,17.70
2018-09-05T02:04:58.063Z,17.77
2018-09-05T02:10:01.900Z,17.37
2018-09-05T02:15:05.535Z,17.47
2018-09-05T02:20:10.522Z,18.50
2018-09-05T02:25:14.376Z,17.93
2018-09-05T02:30:18.171Z,16.80
2018-09-05T02:35:22.099Z,17.73
2018-09-05T02:40:26.544Z,17.67
2018-09-05T02:45:38.273Z,18.53
2018-09-05T02:50:41.956Z,18.97
2018-09-05T02:55:50.850Z,19.33
2018-09-05T03:00:54.866Z,20.20
2018-09-05T03:05:59.092Z,21.10
2018-09-05T03:11:02.897Z,20.93
2018-09-05T03:16:06.739Z,21.30
2018-09-05T03:21:11.565Z,20.33
2018-09-05T03:26:15.689Z,20.47
2018-09-05T03:31:19.583Z,23.63
2018-09-05T03:36:23.340Z,24.33
2018-09-05T03:41:27.759Z,21.37
2018-09-05T03:46:31.686Z,22.37
2018-09-05T03:51:36.172Z,23.37
2018-09-05T03:57:02.155Z,23.10
2018-09-05T04:02:06.128Z,24.47
2018-09-05T04:07:09.879Z,23.00
2018-09-05T04:12:13.645Z,22.27
2018-09-05T04:17:17.703Z,23.97
2018-09-05T04:22:21.742Z,22.63
2018-09-05T04:27:25.821Z,23.17
2018-09-05T04:32:29.915Z,22.17
2018-09-05T04:37:33.768Z,24.93
2018-09-05T04:42:37.674Z,23.30
2018-09-05T04:47:41.705Z,24.70
2018-09-05T04:52:45.513Z,23.03
2018-09-05T04:57:50.038Z,23.50
2018-09-05T05:02:53.944Z,25.10
2018-09-05T05:08:03.853Z,24.70
2018-09-05T05:13:07.491Z,26.57
2018-09-05T05:18:11.287Z,26.30
2018-09-05T05:23:15.617Z,26.07
2018-09-05T05:28:19.540Z,23.07
2018-09-05T05:33:23.677Z,23.13
2018-09-05T05:38:34.068Z,25.03
2018-09-05T05:43:37.918Z,26.83
2018-09-05T05:48:41.980Z,26.90
2018-09-05T05:53:45.896Z,24.50
2018-09-05T06:04:21.071Z,24.83
2018-09-05T06:09:44.480Z,26.70
2018-09-05T06:14:48.098Z,28.17
2018-09-05T06:19:58.396Z,28.53
2018-09-05T06:25:02.380Z,29.70
2018-09-05T06:30:06.541Z,31.07
2018-09-05T06:35:10.890Z,32.53
2018-09-05T06:40:15.219Z,30.07
2018-09-05T06:45:19.210Z,30.70
2018-09-05T06:50:23.629Z,28.57
2018-09-05T06:55:27.305Z,30.20
2018-09-05T07:00:31.075Z,30.67
2018-09-05T07:05:35.259Z,29.53
2018-09-05T07:10:39.180Z,34.90
2018-09-05T07:15:42.890Z,37.00
2018-09-05T07:20:47.103Z,36.67
2018-09-05T07:25:51.180Z,37.57
2018-09-05T07:30:55.555Z,39.00
2018-09-05T07:35:59.803Z,35.07
2018-09-05T07:41:04.044Z,41.73
2018-09-05T07:46:08.451Z,37.07
2018-09-05T07:51:12.272Z,39.50
2018-09-05T07:56:15.966Z,41.37
2018-09-05T08:01:20.031Z,40.57
2018-09-05T08:06:24.421Z,38.70
2018-09-05T08:11:28.619Z,40.70
2018-09-05T08:16:32.759Z,21.83
2018-09-05T08:21:36.501Z,39.53
2018-09-05T08:26:40.772Z,39.17
2018-09-05T08:31:44.932Z,37.63
2018-09-05T08:36:49.288Z,44.13
2018-09-05T08:41:52.845Z,34.03
2018-09-05T08:46:57.252Z,34.73
2018-09-05T08:52:01.133Z,34.57
2018-09-05T08:57:04.934Z,38.60
2018-09-05T09:02:08.712Z,31.60
2018-09-05T09:07:12.499Z,31.93
2018-09-05T09:12:16.524Z,44.03
2018-09-05T09:17:20.488Z,30.97
2018-09-05T09:22:24.315Z,37.20
2018-09-05T09:27:28.388Z,30.80
2018-09-05T09:32:32.289Z,29.43
2018-09-05T09:37:36.281Z,32.07
2018-09-05T09:42:40.358Z,28.10
2018-09-05T09:47:44.348Z,31.33
2018-09-05T09:52:48.372Z,29.50
2018-09-05T09:57:57.659Z,29.80
2018-09-05T10:03:07.026Z,36.00
2018-09-05T10:09:14.884Z,34.77
2018-09-05T10:14:42.900Z,29.10
2018-09-05T10:19:50.936Z,35.33
2018-09-05T10:24:56.116Z,35.30
2018-09-05T10:29:59.936Z,39.17
2018-09-05T10:35:03.779Z,28.77
2018-09-05T10:40:08.068Z,25.83
2018-09-05T10:45:12.256Z,23.83
2018-09-05T10:50:16.248Z,19.20
2018-09-05T10:55:20.007Z,23.43
2018-09-05T11:00:24.031Z,20.80
2018-09-05T11:05:28.152Z,21.53
2018-09-05T11:10:56.172Z,17.87
2018-09-05T11:16:00.167Z,16.80
2018-09-05T11:21:04.145Z,17.50
2018-09-05T11:26:07.852Z,18.77
2018-09-05T11:31:11.957Z,16.77
2018-09-05T11:36:15.644Z,17.60
2018-09-05T11:41:19.900Z,18.30
2018-09-05T11:46:26.380Z,17.80
2018-09-05T11:51:30.193Z,14.83
2018-09-05T11:56:33.847Z,16.20
2018-09-05T12:01:37.474Z,14.30
2018-09-05T12:06:41.517Z,16.57
2018-09-05T12:11:48.244Z,15.00
2018-09-05T12:16:51.995Z,12.50
2018-09-05T12:21:55.898Z,15.27
2018-09-05T12:27:00.689Z,13.87
2018-09-05T12:32:04.691Z,13.13
2018-09-05T12:37:08.713Z,14.47
2018-09-05T12:42:12.687Z,14.50
2018-09-05T12:47:19.842Z,16.63
2018-09-05T12:52:23.530Z,18.93
2018-09-05T12:57:27.377Z,11.27
2018-09-05T13:02:31.395Z,11.97
2018-09-05T13:07:35.293Z,13.17
2018-09-05T13:12:39.592Z,13.67
2018-09-05T13:17:43.516Z,13.03
2018-09-05T13:22:47.326Z,13.20
2018-09-05T13:27:51.099Z,12.93
2018-09-05T13:32:54.933Z,12.37
2018-09-05T13:37:58.866Z,14.77
2018-09-05T13:43:02.629Z,12.90
2018-09-05T13:48:06.588Z,12.03
2018-09-05T13:53:10.756Z,12.53
2018-09-05T13:58:14.928Z,10.93
2018-09-05T14:03:18.740Z,10.47
2018-09-05T14:08:22.712Z,10.68
2018-09-05T14:13:26.671Z,10.53
2018-09-05T14:18:30.471Z,10.97
2018-09-05T14:23:34.265Z,11.80
2018-09-05T14:28:38.019Z,12.73
2018-09-05T14:33:41.968Z,11.00
2018-09-05T14:38:46.144Z,10.90
2018-09-05T14:43:50.062Z,11.30
2018-09-05T14:48:53.920Z,11.03
2018-09-05T14:53:58.200Z,11.57
2018-09-05T14:59:02.527Z,11.33
2018-09-05T15:04:06.326Z,12.27
2018-09-05T15:14:42.379Z,9.50
2018-09-05T15:19:46.036Z,10.33
2018-09-05T15:24:50.300Z,10.40
2018-09-05T15:29:54.443Z,8.78
2018-09-05T15:34:58.428Z,8.13
2018-09-05T15:40:02.341Z,10.68
2018-09-05T15:45:06.202Z,10.03
2018-09-05T15:50:09.964Z,9.43
2018-09-05T15:55:14.651Z,9.47
2018-09-05T16:00:18.399Z,8.60
2018-09-05T16:05:22.732Z,9.90
2018-09-05T16:10:26.652Z,11.03
2018-09-05T16:15:30.662Z,10.27
2018-09-05T16:20:35.012Z,8.53
2018-09-05T16:25:38.871Z,10.10
2018-09-05T16:30:42.712Z,8.73
2018-09-05T16:35:46.464Z,8.80
2018-09-05T16:40:50.634Z,8.30
2018-09-05T16:45:54.940Z,10.70
2018-09-05T16:50:58.692Z,7.13
2018-09-05T16:56:03.390Z,7.30
2018-09-05T17:01:07.128Z,7.67
2018-09-05T17:06:10.795Z,6.90
2018-09-05T17:11:14.701Z,8.53
2018-09-05T17:16:18.777Z,8.40
2018-09-05T17:21:22.456Z,7.93
2018-09-05T17:26:26.695Z,6.77
2018-09-05T17:31:30.360Z,12.90
2018-09-05T17:36:34.215Z,7.07
2018-09-05T17:41:38.723Z,7.50
2018-09-05T17:46:42.704Z,7.23
2018-09-05T17:51:46.600Z,10.50
2018-09-05T17:56:50.407Z,8.90
2018-09-05T18:01:54.080Z,8.73
2018-09-05T18:06:57.929Z,9.67
2018-09-05T18:12:01.880Z,11.20
2018-09-05T18:17:05.512Z,7.00
2018-09-05T18:22:09.929Z,9.67
2018-09-05T18:27:13.598Z,9.97
2018-09-05T18:32:17.670Z,7.23
2018-09-05T18:42:50.052Z,7.87
2018-09-05T18:47:53.830Z,9.27
2018-09-05T18:53:02.941Z,6.40
2018-09-05T19:03:44.870Z,7.67
2018-09-05T19:08:49.396Z,7.10
2018-09-05T19:13:53.138Z,9.17
2018-09-05T19:19:00.355Z,10.30
2018-09-05T19:24:04.382Z,8.27
2018-09-05T19:29:08.340Z,9.37
2018-09-05T19:34:12.826Z,8.30
2018-09-05T19:39:17.495Z,11.37
2018-09-05T19:44:21.494Z,10.23
2018-09-05T19:49:25.170Z,7.60
2018-09-05T19:54:28.971Z,5.93
2018-09-05T19:59:32.991Z,6.90
2018-09-05T20:04:36.701Z,8.30
2018-09-05T20:09:40.537Z,9.27
2018-09-05T20:14:44.493Z,7.53
2018-09-05T20:19:48.183Z,8.33
2018-09-05T20:24:52.292Z,10.00
2018-09-05T20:29:57.118Z,10.83
2018-09-05T20:35:01.052Z,9.73
2018-09-05T20:40:05.055Z,9.17
2018-09-05T20:45:08.984Z,8.20
2018-09-05T20:50:13.037Z,8.17
2018-09-05T20:55:17.350Z,7.30
2018-09-05T21:00:20.950Z,7.50
2018-09-05T21:05:25.006Z,8.50
2018-09-05T21:10:28.915Z,9.87
2018-09-05T21:15:32.768Z,7.60
2018-09-05T21:20:36.884Z,8.10
2018-09-05T21:25:41.126Z,5.90
2018-09-05T21:30:45.008Z,8.13
2018-09-05T21:35:48.844Z,13.80
2018-09-05T21:40:52.637Z,8.70
2018-09-05T21:45:56.976Z,15.00
2018-09-05T21:51:00.814Z,9.77
2018-09-05T21:56:04.662Z,7.73
2018-09-05T22:01:08.372Z,6.63
2018-09-05T22:06:12.201Z,12.10
2018-09-05T22:11:21.118Z,9.00
2018-09-05T22:16:25.488Z,9.40
2018-09-05T22:21:29.906Z,9.37
2018-09-05T22:26:33.704Z,9.83
2018-09-05T22:31:37.467Z,8.93
2018-09-05T22:36:41.447Z,6.83
2018-09-05T22:41:45.634Z,9.80
2018-09-05T22:47:00.483Z,8.80
2018-09-05T22:53:20.553Z,7.40
2018-09-05T22:58:39.936Z,7.77
2018-09-05T23:03:54.986Z,7.70
2018-09-05T23:09:04.892Z,9.30
2018-09-05T23:14:26.166Z,9.80
2018-09-05T23:25:10.372Z,8.30
2018-09-05T23:30:14.512Z,8.53
2018-09-05T23:35:19.038Z,8.40
2018-09-05T23:40:23.180Z,10.00
2018-09-05T23:45:26.898Z,9.33
2018-09-05T23:50:30.819Z,7.90
2018-09-05T23:55:34.595Z,7.50
